Time,TemperatureF,DewpointF,PressureIn,WindDirection,WindDirectionDegrees,WindSpeedMPH,WindSpeedGustMPH,Humidity,HourlyPrecipIn,Conditions,Clouds,dailyrainin,SoftwareType,DateUTC
2013-04-25 00:02:00,37.0,35.0,30.29,West,280,0.0,0.0,91,0.00,,,0.59,,2013-04-25 05:02:00,
2013-04-25 00:12:00,37.0,35.0,30.29,West,280,0.0,0.0,91,0.00,,,0.59,,2013-04-25 05:12:00,
2013-04-25 00:21:00,37.0,35.0,30.29,West,280,0.0,0.0,92,0.00,,,0.59,,2013-04-25 05:21:00,
2013-04-25 00:32:00,36.0,34.0,30.30,West,280,0.0,0.0,92,0.00,,,0.56,,2013-04-25 05:32:00,
2013-04-25 00:42:00,36.0,34.0,30.30,West,280,0.0,0.0,92,0.00,,,0.56,,2013-04-25 05:42:00,
2013-04-25 00:51:00,36.0,34.0,30.30,West,280,0.0,0.0,93,0.00,,,0.56,,2013-04-25 05:51:00,
2013-04-25 01:02:00,35.0,33.0,30.30,West,280,0.0,0.0,93,0.00,,,0.56,,2013-04-25 06:02:00,
2013-04-25 01:11:00,35.0,33.0,30.30,West,280,0.0,0.0,93,0.00,,,0.56,,2013-04-25 06:11:00,
2013-04-25 01:22:00,35.0,33.0,30.31,SSW,205,0.0,1.0,94,0.00,,,0.56,,2013-04-25 06:22:00,
2013-04-25 01:32:00,35.0,33.0,30.32,SSE,164,0.0,1.0,94,0.00,,,0.52,,2013-04-25 06:32:00,
2013-04-25 01:42:00,35.0,33.0,30.32,SSE,164,0.0,1.0,94,0.00,,,0.52,,2013-04-25 06:42:00,
2013-04-25 01:52:00,34.0,32.0,30.32,SSE,164,0.0,1.0,94,0.00,,,0.52,,2013-04-25 06:52:00,
2013-04-25 02:02:00,34.0,32.0,30.32,SSE,164,0.0,0.0,94,0.00,,,0.52,,2013-04-25 07:02:00,
2013-04-25 02:12:00,34.0,33.0,30.32,SSE,164,0.0,0.0,95,0.00,,,0.52,,2013-04-25 07:12:00,
2013-04-25 02:22:00,34.0,33.0,30.32,SSE,164,0.0,0.0,95,0.00,,,0.52,,2013-04-25 07:22:00,
2013-04-25 02:32:00,33.0,32.0,30.32,SSE,163,0.0,0.0,95,0.00,,,0.28,,2013-04-25 07:32:00,
2013-04-25 02:42:00,33.0,32.0,30.32,SSE,163,0.0,0.0,95,0.00,,,0.28,,2013-04-25 07:42:00,
2013-04-25 02:52:00,33.0,32.0,30.32,SSE,163,0.0,0.0,95,0.00,,,0.28,,2013-04-25 07:52:00,
2013-04-25 03:01:00,33.0,32.0,30.32,SSE,164,0.0,0.0,96,0.00,,,0.28,,2013-04-25 08:01:00,
2013-04-25 03:11:00,33.0,32.0,30.32,SSE,164,0.0,0.0,96,0.00,,,0.28,,2013-04-25 08:11:00,
2013-04-25 03:21:00,32.0,31.0,30.32,SSE,164,0.0,0.0,96,0.00,,,0.28,,2013-04-25 08:21:00,
2013-04-25 03:31:00,32.0,31.0,30.31,SSE,163,0.0,0.0,96,0.00,,,0.07,,2013-04-25 08:31:00,
2013-04-25 03:41:00,32.0,31.0,30.31,SSE,163,0.0,0.0,96,0.00,,,0.07,,2013-04-25 08:41:00,
2013-04-25 03:51:00,32.0,31.0,30.31,SSE,163,0.0,0.0,96,0.00,,,0.07,,2013-04-25 08:51:00,
2013-04-25 04:01:00,32.0,31.0,30.31,SSE,163,0.0,0.0,96,0.00,,,0.07,,2013-04-25 09:01:00,
2013-04-25 04:11:00,32.0,31.0,30.31,SSE,163,0.0,0.0,96,0.00,,,0.07,,2013-04-25 09:11:00,
2013-04-25 04:21:00,32.0,31.0,30.31,SSE,163,0.0,0.0,96,0.00,,,0.07,,2013-04-25 09:21:00,
2013-04-25 04:33:00,32.0,31.0,30.31,SSE,150,0.0,1.0,96,0.00,,,0.00,,2013-04-25 09:33:00,
2013-04-25 04:42:00,32.0,31.0,30.31,SSE,150,0.0,1.0,96,0.00,,,0.00,,2013-04-25 09:42:00,
2013-04-25 04:52:00,31.0,30.0,30.31,SSE,150,0.0,0.0,96,0.00,,,0.00,,2013-04-25 09:52:00,
2013-04-25 05:02:00,31.0,30.0,30.30,SSE,152,0.0,0.0,96,0.00,,,0.00,,2013-04-25 10:02:00,
2013-04-25 05:12:00,31.0,30.0,30.30,SSE,152,0.0,0.0,96,0.00,,,0.00,,2013-04-25 10:12:00,
2013-04-25 05:22:00,30.0,29.0,30.31,SSE,153,0.0,0.0,96,0.00,,,0.00,,2013-04-25 10:22:00,
2013-04-25 05:32:00,31.0,30.0,30.31,SSE,153,0.0,0.0,97,0.00,,,0.00,,2013-04-25 10:32:00,
2013-04-25 05:42:00,31.0,30.0,30.31,SSE,153,0.0,0.0,97,0.00,,,0.00,,2013-04-25 10:42:00,
2013-04-25 05:52:00,30.0,29.0,30.32,SSE,152,0.0,0.0,97,0.00,,,0.00,,2013-04-25 10:52:00,
2013-04-25 06:02:00,30.0,29.0,30.32,SSE,153,0.0,0.0,97,0.00,,,0.00,,2013-04-25 11:02:00,
2013-04-25 06:12:00,30.0,29.0,30.32,SSE,153,0.0,0.0,97,0.00,,,0.00,,2013-04-25 11:12:00,
2013-04-25 06:22:00,30.0,29.0,30.32,SSE,152,0.0,0.0,97,0.00,,,0.00,,2013-04-25 11:22:00,
2013-04-25 06:32:00,30.0,29.0,30.33,SSE,152,0.0,0.0,97,0.00,,,0.00,,2013-04-25 11:32:00,
2013-04-25 06:42:00,30.0,29.0,30.33,SSE,152,0.0,0.0,97,0.00,,,0.00,,2013-04-25 11:42:00,
2013-04-25 06:51:00,30.0,29.0,30.33,SSE,150,0.0,0.0,97,0.00,,,0.00,,2013-04-25 11:51:00,
2013-04-25 07:01:00,30.0,29.0,30.34,SSE,150,0.0,0.0,97,0.00,,,0.00,,2013-04-25 12:01:00,
2013-04-25 07:12:00,30.0,29.0,30.34,SSE,150,0.0,0.0,97,0.00,,,0.00,,2013-04-25 12:12:00,
2013-04-25 07:21:00,31.0,30.0,30.35,SSE,152,0.0,0.0,97,0.00,,,0.00,,2013-04-25 12:21:00,
2013-04-25 07:32:00,32.0,32.0,30.36,SSE,152,0.0,0.0,98,0.00,,,0.00,,2013-04-25 12:32:00,
2013-04-25 07:42:00,32.0,32.0,30.36,SSE,152,0.0,0.0,98,0.00,,,0.00,,2013-04-25 12:42:00,
2013-04-25 07:51:00,33.0,32.0,30.36,SE,144,0.0,0.0,98,0.00,,,0.00,,2013-04-25 12:51:00,
2013-04-25 08:02:00,35.0,34.0,30.36,SE,145,0.0,0.0,98,0.00,,,0.00,,2013-04-25 13:02:00,
2013-04-25 08:11:00,35.0,34.0,30.36,SE,145,0.0,0.0,98,0.00,,,0.00,,2013-04-25 13:11:00,
2013-04-25 08:21:00,37.0,36.0,30.37,SSW,207,0.0,3.0,97,0.00,,,0.00,,2013-04-25 13:21:00,
2013-04-25 08:32:00,40.0,38.0,30.37,South,188,0.0,1.0,94,0.00,,,0.00,,2013-04-25 13:32:00,
2013-04-25 08:42:00,40.0,38.0,30.37,South,188,0.0,1.0,94,0.00,,,0.00,,2013-04-25 13:42:00,
2013-04-25 08:52:00,44.0,40.0,30.37,South,188,0.0,1.0,87,0.00,,,0.00,,2013-04-25 13:52:00,
2013-04-25 09:02:00,47.0,40.0,30.37,SE,127,0.0,2.0,77,0.00,,,0.00,,2013-04-25 14:02:00,
2013-04-25 09:11:00,47.0,40.0,30.37,SE,127,0.0,2.0,77,0.00,,,0.00,,2013-04-25 14:11:00,
2013-04-25 09:21:00,48.0,40.0,30.38,SSW,201,0.0,3.0,74,0.00,,,0.00,,2013-04-25 14:21:00,
2013-04-25 09:32:00,51.0,40.0,30.38,SW,232,0.0,2.0,67,0.00,,,0.00,,2013-04-25 14:32:00,
2013-04-25 09:42:00,51.0,40.0,30.38,SW,232,0.0,2.0,67,0.00,,,0.00,,2013-04-25 14:42:00,
2013-04-25 09:51:00,52.0,36.0,30.38,WNW,287,2.0,7.0,54,0.00,,,0.00,,2013-04-25 14:51:00,
2013-04-25 10:02:00,53.0,36.0,30.38,West,278,3.0,6.0,52,0.00,,,0.00,,2013-04-25 15:02:00,
2013-04-25 10:11:00,53.0,36.0,30.38,West,278,3.0,6.0,52,0.00,,,0.00,,2013-04-25 15:11:00,
2013-04-25 10:21:00,55.0,38.0,30.38,WNW,289,2.0,6.0,52,0.00,,,0.00,,2013-04-25 15:21:00,
2013-04-25 10:33:00,56.0,36.0,30.38,SW,231,2.0,6.0,47,0.00,,,0.00,,2013-04-25 15:33:00,
2013-04-25 10:42:00,56.0,36.0,30.38,SW,231,2.0,6.0,47,0.00,,,0.00,,2013-04-25 15:42:00,
2013-04-25 10:53:00,58.0,36.0,30.37,NW,315,2.0,5.0,44,0.00,,,0.00,,2013-04-25 15:53:00,
2013-04-25 11:02:00,58.0,34.0,30.37,NW,314,4.0,7.0,41,0.00,,,0.00,,2013-04-25 16:02:00,
2013-04-25 11:13:00,58.0,34.0,30.37,NW,314,4.0,7.0,41,0.00,,,0.00,,2013-04-25 16:13:00,
2013-04-25 11:24:00,59.0,35.0,30.37,WNW,300,2.0,5.0,40,0.00,,,0.00,,2013-04-25 16:24:00,
2013-04-25 11:32:00,60.0,36.0,30.37,NW,315,1.0,5.0,40,0.00,,,0.00,,2013-04-25 16:32:00,
2013-04-25 11:42:00,60.0,36.0,30.37,NW,315,1.0,5.0,40,0.00,,,0.00,,2013-04-25 16:42:00,
2013-04-25 11:52:00,62.0,36.0,30.37,WNW,287,1.0,6.0,38,0.00,,,0.00,,2013-04-25 16:52:00,
2013-04-25 12:02:00,63.0,37.0,30.37,WSW,240,1.0,5.0,38,0.00,,,0.00,,2013-04-25 17:02:00,
2013-04-25 12:11:00,63.0,37.0,30.37,WSW,240,1.0,5.0,38,0.00,,,0.00,,2013-04-25 17:11:00,
2013-04-25 12:22:00,62.0,35.0,30.36,West,270,2.0,7.0,37,0.00,,,0.00,,2013-04-25 17:22:00,
2013-04-25 12:32:00,63.0,34.0,30.36,West,276,3.0,7.0,34,0.00,,,0.00,,2013-04-25 17:32:00,
2013-04-25 12:42:00,63.0,34.0,30.36,West,276,3.0,7.0,34,0.00,,,0.00,,2013-04-25 17:42:00,
2013-04-25 12:53:00,64.0,34.0,30.35,SSE,155,4.0,7.0,33,0.00,,,0.00,,2013-04-25 17:53:00,
2013-04-25 13:01:00,66.0,31.0,30.35,West,267,1.0,5.0,27,0.00,,,0.00,,2013-04-25 18:01:00,
2013-04-25 13:11:00,66.0,31.0,30.35,West,267,1.0,5.0,27,0.00,,,0.00,,2013-04-25 18:11:00,
2013-04-25 13:22:00,65.0,33.0,30.35,SSE,165,2.0,8.0,30,0.00,,,0.00,,2013-04-25 18:22:00,
2013-04-25 13:32:00,66.0,32.0,30.34,NNW,346,2.0,5.0,28,0.00,,,0.00,,2013-04-25 18:32:00,
2013-04-25 13:42:00,66.0,32.0,30.34,NNW,346,2.0,5.0,28,0.00,,,0.00,,2013-04-25 18:42:00,
2013-04-25 13:53:00,67.0,30.0,30.33,West,280,5.0,10.0,25,0.00,,,0.00,,2013-04-25 18:53:00,
2013-04-25 14:01:00,67.0,31.0,30.33,WSW,242,1.0,8.0,26,0.00,,,0.00,,2013-04-25 19:01:00,
2013-04-25 14:12:00,67.0,31.0,30.33,WSW,242,1.0,8.0,26,0.00,,,0.00,,2013-04-25 19:12:00,
2013-04-25 14:21:00,68.0,34.0,30.32,SW,214,2.0,8.0,28,0.00,,,0.00,,2013-04-25 19:21:00,
2013-04-25 14:31:00,68.0,33.0,30.32,SW,215,1.0,9.0,27,0.00,,,0.00,,2013-04-25 19:31:00,
2013-04-25 14:42:00,68.0,33.0,30.32,SW,215,1.0,9.0,27,0.00,,,0.00,,2013-04-25 19:42:00,
2013-04-25 14:52:00,68.0,33.0,30.32,SW,214,4.0,9.0,27,0.00,,,0.00,,2013-04-25 19:52:00,
2013-04-25 15:02:00,68.0,32.0,30.31,SSW,198,3.0,6.0,26,0.00,,,0.00,,2013-04-25 20:02:00,
2013-04-25 15:11:00,68.0,32.0,30.31,SSW,198,3.0,6.0,26,0.00,,,0.00,,2013-04-25 20:11:00,
2013-04-25 15:22:00,68.0,32.0,30.30,WSW,256,5.0,8.0,26,0.00,,,0.00,,2013-04-25 20:22:00,
2013-04-25 15:32:00,69.0,34.0,30.30,WSW,245,5.0,8.0,27,0.00,,,0.00,,2013-04-25 20:32:00,
2013-04-25 15:42:00,69.0,34.0,30.30,WSW,245,5.0,8.0,27,0.00,,,0.00,,2013-04-25 20:42:00,
2013-04-25 15:52:00,69.0,32.0,30.29,SE,124,0.0,6.0,25,0.00,,,0.00,,2013-04-25 20:52:00,
2013-04-25 16:01:00,69.0,32.0,30.29,WNW,283,1.0,7.0,25,0.00,,,0.00,,2013-04-25 21:01:00,
2013-04-25 16:11:00,69.0,32.0,30.29,WNW,283,1.0,7.0,25,0.00,,,0.00,,2013-04-25 21:11:00,
2013-04-25 16:21:00,69.0,32.0,30.28,SW,217,1.0,8.0,25,0.00,,,0.00,,2013-04-25 21:21:00,
2013-04-25 16:33:00,71.0,34.0,30.27,WSW,252,3.0,5.0,26,0.00,,,0.00,,2013-04-25 21:33:00,
2013-04-25 16:42:00,71.0,34.0,30.27,WSW,252,3.0,5.0,26,0.00,,,0.00,,2013-04-25 21:42:00,
2013-04-25 16:53:00,71.0,31.0,30.27,West,274,2.0,4.0,23,0.00,,,0.00,,2013-04-25 21:53:00,
2013-04-25 17:02:00,72.0,33.0,30.27,NW,318,1.0,3.0,24,0.00,,,0.00,,2013-04-25 22:02:00,
2013-04-25 17:12:00,72.0,33.0,30.27,NW,318,1.0,3.0,24,0.00,,,0.00,,2013-04-25 22:12:00,
2013-04-25 17:22:00,71.0,32.0,30.26,West,263,3.0,6.0,24,0.00,,,0.00,,2013-04-25 22:22:00,
2013-04-25 17:32:00,70.0,30.0,30.27,NW,305,1.0,7.0,23,0.00,,,0.00,,2013-04-25 22:32:00,
2013-04-25 17:42:00,70.0,30.0,30.27,NW,305,1.0,7.0,23,0.00,,,0.00,,2013-04-25 22:42:00,
2013-04-25 17:53:00,69.0,33.0,30.26,NNE,24,0.0,5.0,26,0.00,,,0.00,,2013-04-25 22:53:00,
2013-04-25 18:02:00,70.0,32.0,30.26,SSE,168,0.0,4.0,24,0.00,,,0.00,,2013-04-25 23:02:00,
2013-04-25 18:12:00,70.0,32.0,30.26,SSE,168,0.0,4.0,24,0.00,,,0.00,,2013-04-25 23:12:00,
2013-04-25 18:22:00,70.0,32.0,30.26,ESE,120,0.0,3.0,24,0.00,,,0.00,,2013-04-25 23:22:00,
2013-04-25 18:32:00,70.0,30.0,30.26,SSE,150,2.0,3.0,23,0.00,,,0.00,,2013-04-25 23:32:00,
2013-04-25 18:42:00,70.0,30.0,30.26,SSE,150,2.0,3.0,23,0.00,,,0.00,,2013-04-25 23:42:00,
2013-04-25 18:52:00,70.0,33.0,30.25,SE,137,0.0,3.0,25,0.00,,,0.00,,2013-04-25 23:52:00,
2013-04-25 19:01:00,68.0,32.0,30.25,ESE,114,2.0,4.0,26,0.00,,,0.00,,2013-04-26 00:01:00,
2013-04-25 19:11:00,68.0,32.0,30.25,ESE,114,2.0,4.0,26,0.00,,,0.00,,2013-04-26 00:11:00,
2013-04-25 19:21:00,67.0,34.0,30.24,ESE,110,0.0,2.0,29,0.00,,,0.00,,2013-04-26 00:21:00,
2013-04-25 19:31:00,66.0,34.0,30.24,SE,125,0.0,3.0,31,0.00,,,0.00,,2013-04-26 00:31:00,
2013-04-25 19:41:00,66.0,34.0,30.24,SE,125,0.0,3.0,31,0.00,,,0.00,,2013-04-26 00:41:00,
2013-04-25 19:52:00,65.0,34.0,30.24,ESE,110,0.0,1.0,31,0.00,,,0.00,,2013-04-26 00:52:00,
2013-04-25 20:01:00,63.0,34.0,30.24,ESE,110,0.0,1.0,34,0.00,,,0.00,,2013-04-26 01:01:00,
2013-04-25 20:11:00,63.0,34.0,30.24,ESE,110,0.0,1.0,34,0.00,,,0.00,,2013-04-26 01:11:00,
2013-04-25 20:21:00,61.0,35.0,30.24,ESE,110,0.0,0.0,38,0.00,,,0.00,,2013-04-26 01:21:00,
2013-04-25 20:31:00,59.0,36.0,30.24,ESE,110,0.0,0.0,42,0.00,,,0.00,,2013-04-26 01:31:00,
2013-04-25 20:41:00,59.0,36.0,30.24,ESE,110,0.0,0.0,42,0.00,,,0.00,,2013-04-26 01:41:00,
2013-04-25 20:52:00,58.0,38.0,30.24,ESE,110,0.0,0.0,47,0.00,,,0.00,,2013-04-26 01:52:00,
2013-04-25 21:02:00,57.0,39.0,30.25,ESE,110,0.0,0.0,51,0.00,,,0.00,,2013-04-26 02:02:00,
2013-04-25 21:11:00,57.0,39.0,30.25,ESE,110,0.0,0.0,51,0.00,,,0.00,,2013-04-26 02:11:00,
2013-04-25 21:21:00,57.0,41.0,30.25,ESE,110,0.0,0.0,54,0.00,,,0.00,,2013-04-26 02:21:00,
2013-04-25 21:32:00,57.0,38.0,30.26,SE,124,1.0,3.0,48,0.00,,,0.00,,2013-04-26 02:32:00,
2013-04-25 21:42:00,57.0,38.0,30.26,SE,124,1.0,3.0,48,0.00,,,0.00,,2013-04-26 02:42:00,
2013-04-25 21:52:00,60.0,37.0,30.26,SE,134,2.0,9.0,43,0.00,,,0.00,,2013-04-26 02:52:00,
2013-04-25 22:01:00,60.0,38.0,30.27,East,94,2.0,6.0,44,0.00,,,0.00,,2013-04-26 03:01:00,
2013-04-25 22:11:00,60.0,38.0,30.27,East,94,2.0,6.0,44,0.00,,,0.00,,2013-04-26 03:11:00,
2013-04-25 22:21:00,60.0,39.0,30.26,ESE,105,2.0,7.0,46,0.00,,,0.00,,2013-04-26 03:21:00,
2013-04-25 22:33:00,60.0,40.0,30.26,SSE,150,1.0,6.0,47,0.00,,,0.00,,2013-04-26 03:33:00,
2013-04-25 22:43:00,60.0,40.0,30.26,SSE,150,1.0,6.0,47,0.00,,,0.00,,2013-04-26 03:43:00,
2013-04-25 22:53:00,60.0,40.0,30.27,South,191,1.0,5.0,48,0.00,,,0.00,,2013-04-26 03:53:00,
2013-04-25 23:02:00,60.0,40.0,30.29,SW,218,0.0,4.0,48,0.00,,,0.00,,2013-04-26 04:02:00,
2013-04-25 23:12:00,60.0,40.0,30.29,SW,218,0.0,4.0,48,0.00,,,0.00,,2013-04-26 04:12:00,
2013-04-25 23:22:00,59.0,40.0,30.29,South,172,0.0,3.0,50,0.00,,,0.00,,2013-04-26 04:22:00,
2013-04-25 23:32:00,59.0,41.0,30.28,SE,144,1.0,3.0,52,0.00,,,0.00,,2013-04-26 04:32:00,
2013-04-25 23:43:00,59.0,41.0,30.28,SE,144,1.0,3.0,52,0.00,,,0.00,,2013-04-26 04:43:00,
2013-04-25 23:53:00,58.0,40.0,30.28,SE,136,0.0,3.0,52,0.00,,,0.00,,2013-04-26 04:53:00,